Time;durP1;ratioP1;P1;durP2;ratioP2;P2;SDS_P1;SDS_P2;PMS_P1;PMS_P2;Temp;Humidity;BMP_temperature;BMP_pressure;BME280_temperature;BME280_humidity;BME280_pressure;Samples;Min_cycle;Max_cycle;Signal;HPM_P1;HPM_P2
2024/01/23 00:00:38;;;;;;;;;;;6.20;99.90;;;;;;5098738;27;20131;-79
2024/01/23 00:03:05;;;;;;;15.05;4.70;;;6.40;99.90;;;;;;5099931;27;19976;-79
2024/01/23 00:05:33;;;;;;;20.55;5.20;;;6.10;99.90;;;;;;5115814;27;20042;-79
2024/01/23 00:08:00;;;;;;;17.10;4.63;;;6.10;99.90;;;;;;5117640;27;20063;-79
2024/01/23 00:10:27;;;;;;;14.25;3.58;;;6.00;99.90;;;;;;5100224;27;20547;-78
2024/01/23 00:12:54;;;;;;;14.35;5.68;;;6.00;99.90;;;;;;5098625;27;20043;-79
2024/01/23 00:15:21;;;;;;;16.42;4.93;;;6.00;99.90;;;;;;5099273;27;20043;-79
2024/01/23 00:17:48;;;;;;;23.92;5.40;;;6.00;99.90;;;;;;5098569;27;20529;-77
2024/01/23 00:20:15;;;;;;;19.17;4.57;;;6.20;99.90;;;;;;5099145;27;20055;-76
2024/01/23 00:22:43;;;;;;;16.98;5.45;;;5.90;99.90;;;;;;5107332;27;20043;-77
2024/01/23 00:25:10;;;;;;;15.63;4.97;;;5.90;99.90;;;;;;5131003;27;20039;-77
2024/01/23 00:27:37;;;;;;;15.18;4.28;;;5.80;99.90;;;;;;5099456;27;20096;-79
2024/01/23 00:30:04;;;;;;;15.20;4.68;;;5.80;99.90;;;;;;5127055;27;20050;-79
2024/01/23 00:32:31;;;;;;;16.67;5.45;;;5.80;99.90;;;;;;5136829;27;20050;-79
2024/01/23 00:34:58;;;;;;;21.08;4.88;;;7.00;99.90;;;;;;5117557;27;20444;-79
2024/01/23 00:37:26;;;;;;;16.83;5.25;;;5.90;99.90;;;;;;5127585;27;20100;-78
2024/01/23 00:39:54;;;;;;;17.25;4.57;;;5.90;99.90;;;;;;5099581;27;20422;-79
2024/01/23 00:42:21;;;;;;;19.02;4.97;;;5.90;99.90;;;;;;5114792;27;20047;-77
2024/01/23 00:44:48;;;;;;;21.77;5.75;;;6.00;99.90;;;;;;5098717;27;20410;-77
2024/01/23 00:47:15;;;;;;;19.85;6.28;;;6.00;99.90;;;;;;5099624;27;20100;-77
2024/01/23 00:49:42;;;;;;;16.20;5.63;;;6.00;99.90;;;;;;5097575;27;20055;-78
2024/01/23 00:52:09;;;;;;;11.65;5.13;;;5.90;99.90;;;;;;5099517;27;20096;-78
2024/01/23 00:54:36;;;;;;;16.85;4.60;;;6.00;99.90;;;;;;5097854;27;20510;-77
2024/01/23 00:57:05;;;;;;;23.77;5.78;;;6.00;99.90;;;;;;5098400;27;20047;-77
2024/01/23 00:59:32;;;;;;;16.02;5.38;;;6.00;99.90;;;;;;5133141;27;20122;-77
2024/01/23 01:01:59;;;;;;;15.85;4.95;;;6.00;99.90;;;;;;5107889;27;20481;-78
2024/01/23 01:04:26;;;;;;;18.77;4.93;;;6.10;99.90;;;;;;5099327;27;20039;-77
2024/01/23 01:06:53;;;;;;;22.98;5.25;;;6.10;99.90;;;;;;5098367;27;20051;-77
2024/01/23 01:09:20;;;;;;;15.65;4.78;;;6.10;99.90;;;;;;5116506;27;20106;-77
2024/01/23 01:11:47;;;;;;;16.08;5.35;;;6.10;99.90;;;;;;5135692;27;20393;-79
2024/01/23 01:14:15;;;;;;;14.35;4.95;;;6.00;99.90;;;;;;5136311;27;20409;-79
2024/01/23 01:16:42;;;;;;;12.90;4.47;;;6.40;99.90;;;;;;5115966;27;20085;-79
2024/01/23 01:19:09;;;;;;;19.55;5.05;;;5.90;99.90;;;;;;5120661;27;20088;-79
2024/01/23 01:21:37;;;;;;;21.42;5.10;;;5.90;99.90;;;;;;5115539;27;20044;-79
2024/01/23 01:24:04;;;;;;;13.57;4.18;;;5.80;99.90;;;;;;5098393;27;20506;-78
2024/01/23 01:26:33;;;;;;;18.02;5.30;;;5.70;99.90;;;;;;5098898;27;20113;-79
2024/01/23 01:29:00;;;;;;;12.25;4.90;;;5.70;99.90;;;;;;5100240;27;20079;-79
2024/01/23 01:31:28;;;;;;;19.52;5.65;;;5.70;99.90;;;;;;5103976;27;20486;-79
2024/01/23 01:33:55;;;;;;;14.80;4.28;;;5.70;99.90;;;;;;5130764;27;20055;-79
2024/01/23 01:36:22;;;;;;;11.60;4.35;;;5.60;99.90;;;;;;5103173;27;20495;-79
2024/01/23 01:38:49;;;;;;;14.00;4.57;;;5.60;99.90;;;;;;5113946;27;20050;-83
2024/01/23 01:41:16;;;;;;;17.27;4.40;;;5.60;99.90;;;;;;5134658;27;20107;-80
2024/01/23 01:43:43;;;;;;;17.10;4.35;;;5.70;99.90;;;;;;5135449;27;20050;-80
2024/01/23 01:46:16;;;;;;;19.77;6.22;;;5.50;99.90;;;;;;5134778;27;20042;-80
2024/01/23 01:48:46;;;;;;;14.57;4.90;;;5.50;99.90;;;;;;5129645;27;20098;-80
2024/01/23 01:51:13;;;;;;;18.50;6.22;;;5.40;99.90;;;;;;5097907;27;20502;-79
2024/01/23 01:53:41;;;;;;;24.05;6.53;;;5.40;99.90;;;;;;5097766;27;20043;-79
2024/01/23 01:56:09;;;;;;;19.33;5.47;;;5.50;99.90;;;;;;5114668;27;20496;-80
2024/01/23 01:58:38;;;;;;;15.43;4.43;;;5.50;99.90;;;;;;5098014;27;20482;-80
2024/01/23 02:01:05;;;;;;;24.20;5.57;;;5.40;99.90;;;;;;5095823;27;20044;-80
2024/01/23 02:03:32;;;;;;;15.43;6.40;;;5.30;99.90;;;;;;5096960;27;20127;-80
2024/01/23 02:06:03;;;;;;;16.92;5.25;;;5.30;99.90;;;;;;5098270;27;20445;-78
2024/01/23 02:08:30;;;;;;;21.63;5.30;;;5.30;99.90;;;;;;5096582;27;20437;-78
2024/01/23 02:10:57;;;;;;;24.45;5.18;;;5.40;99.90;;;;;;5137934;27;20558;-79
2024/01/23 02:13:24;;;;;;;24.20;6.80;;;5.30;99.90;;;;;;5135203;27;20050;-79
2024/01/23 02:15:51;;;;;;;20.75;5.32;;;5.30;99.90;;;;;;5134024;27;20409;-79
2024/01/23 02:18:19;;;;;;;19.38;5.50;;;5.40;99.90;;;;;;5135341;27;20043;-79
2024/01/23 02:20:46;;;;;;;20.20;7.10;;;5.30;99.90;;;;;;5097163;27;20059;-79
2024/01/23 02:23:15;;;;;;;19.33;5.72;;;5.40;99.90;;;;;;5097638;27;20043;-80
2024/01/23 02:25:44;;;;;;;25.75;5.13;;;5.40;99.90;;;;;;5113173;27;20047;-80
2024/01/23 02:28:12;;;;;;;20.02;5.05;;;5.40;99.90;;;;;;5114687;27;20054;-79
2024/01/23 02:30:39;;;;;;;17.25;5.72;;;5.50;99.90;;;;;;5115221;27;20047;-79
2024/01/23 02:33:06;;;;;;;11.38;4.95;;;5.40;99.90;;;;;;5115126;27;20463;-80
2024/01/23 02:35:34;;;;;;;24.92;5.93;;;5.60;99.90;;;;;;5114620;27;20050;-80
2024/01/23 02:38:01;;;;;;;18.25;5.30;;;5.50;99.90;;;;;;5115046;27;20092;-79
2024/01/23 02:40:28;;;;;;;19.70;6.25;;;5.50;99.90;;;;;;5112903;27;20091;-79
2024/01/23 02:42:56;;;;;;;25.48;5.45;;;5.50;99.90;;;;;;5112416;27;20051;-78
2024/01/23 02:45:24;;;;;;;24.48;6.30;;;5.70;99.90;;;;;;5114833;27;20498;-79
2024/01/23 02:47:51;;;;;;;17.90;5.78;;;5.70;99.90;;;;;;5097543;27;20047;-79
2024/01/23 02:50:18;;;;;;;28.08;5.47;;;5.80;99.90;;;;;;5095293;27;20044;-82
2024/01/23 02:52:45;;;;;;;24.63;5.70;;;5.80;99.90;;;;;;5096946;27;20044;-81
2024/01/23 02:55:12;;;;;;;19.40;5.90;;;5.60;99.90;;;;;;5112459;28;20100;-81
2024/01/23 02:57:39;;;;;;;19.15;5.63;;;5.90;99.90;;;;;;5114015;28;20035;-79
2024/01/23 03:00:09;;;;;;;23.90;5.90;;;5.90;99.90;;;;;;5097584;27;20059;-79
2024/01/23 03:02:36;;;;;;;21.10;6.67;;;5.90;99.90;;;;;;5095883;27;20468;-78
2024/01/23 03:05:03;;;;;;;18.23;6.07;;;6.00;99.90;;;;;;5096111;27;20093;-78
2024/01/23 03:07:30;;;;;;;17.35;5.25;;;6.00;99.90;;;;;;5112548;28;20047;-79
2024/01/23 03:09:57;;;;;;;24.38;6.88;;;6.10;99.90;;;;;;5096711;27;20494;-80
2024/01/23 03:12:25;;;;;;;34.60;6.32;;;6.10;99.90;;;;;;5104009;27;20046;-79
2024/01/23 03:14:52;;;;;;;24.20;6.28;;;6.10;99.90;;;;;;5134252;27;20046;-79
2024/01/23 03:17:20;;;;;;;19.05;6.32;;;6.10;99.90;;;;;;5124816;27;20556;-78
2024/01/23 03:19:48;;;;;;;15.07;5.50;;;6.10;99.90;;;;;;5118862;27;20046;-77
2024/01/23 03:22:15;;;;;;;25.67;6.82;;;6.00;99.90;;;;;;5123625;27;20390;-77
2024/01/23 03:24:42;;;;;;;18.80;5.57;;;6.00;99.90;;;;;;5137584;27;20516;-77
2024/01/23 03:27:09;;;;;;;28.25;6.00;;;6.30;99.90;;;;;;5137831;27;20059;-78
2024/01/23 03:29:41;;;;;;;23.17;5.72;;;6.10;99.90;;;;;;5126033;27;20052;-79
2024/01/23 03:32:08;;;;;;;28.20;6.20;;;6.10;99.90;;;;;;5100982;27;20048;-79
2024/01/23 03:34:37;;;;;;;24.73;6.00;;;6.10;99.90;;;;;;5100089;27;20115;-78
2024/01/23 03:37:05;;;;;;;21.17;5.55;;;6.20;99.90;;;;;;5100592;27;20043;-79
2024/01/23 03:39:32;;;;;;;29.83;6.60;;;6.20;99.90;;;;;;5117173;27;20460;-78
2024/01/23 03:41:59;;;;;;;29.90;6.63;;;6.20;99.90;;;;;;5099942;27;20039;-81
2024/01/23 03:44:26;;;;;;;26.48;6.50;;;6.20;99.90;;;;;;5116283;27;20291;-81
2024/01/23 03:46:53;;;;;;;27.10;5.82;;;6.50;99.90;;;;;;5099134;27;20555;-80
2024/01/23 03:49:21;;;;;;;23.63;5.50;;;6.20;99.90;;;;;;5100905;27;20097;-82
2024/01/23 03:51:50;;;;;;;24.88;6.70;;;6.20;99.90;;;;;;5099691;27;20125;-80
2024/01/23 03:54:17;;;;;;;26.80;5.65;;;6.20;99.90;;;;;;5099098;27;20060;-82
2024/01/23 03:56:44;;;;;;;25.75;6.65;;;6.20;99.90;;;;;;5100432;27;20043;-80
2024/01/23 03:59:11;;;;;;;23.73;6.75;;;6.40;99.90;;;;;;5099335;27;20097;-79
2024/01/23 04:01:38;;;;;;;13.90;5.95;;;6.30;99.90;;;;;;5100444;27;20479;-80
2024/01/23 04:04:05;;;;;;;22.25;5.57;;;6.40;99.90;;;;;;5099640;27;20070;-81
2024/01/23 04:06:32;;;;;;;20.77;6.30;;;6.40;99.90;;;;;;5116742;27;20039;-80
2024/01/23 04:09:02;;;;;;;13.90;5.28;;;6.40;99.90;;;;;;5099684;27;20059;-71
2024/01/23 04:11:30;;;;;;;19.65;5.97;;;6.40;99.90;;;;;;5099438;27;20051;-70
2024/01/23 04:13:57;;;;;;;18.40;5.55;;;6.40;99.90;;;;;;5099842;27;20079;-78
2024/01/23 04:16:23;;;;;;;32.35;6.82;;;6.50;99.90;;;;;;5098928;27;20043;-79
2024/01/23 04:18:54;;;;;;;21.55;5.45;;;6.40;99.90;;;;;;5100006;27;20108;-79
2024/01/23 04:21:21;;;;;;;18.58;5.80;;;6.50;99.90;;;;;;5115773;27;20050;-73
2024/01/23 04:23:48;;;;;;;19.05;6.57;;;6.50;99.90;;;;;;5098297;27;20096;-72
2024/01/23 04:26:18;;;;;;;28.55;7.78;;;6.60;99.90;;;;;;5113356;27;20050;-71
2024/01/23 04:28:46;;;;;;;24.65;6.55;;;6.60;99.90;;;;;;5113354;27;20051;-70
2024/01/23 04:31:13;;;;;;;31.55;8.98;;;6.50;99.90;;;;;;5114960;27;20410;-70
2024/01/23 04:33:40;;;;;;;22.80;6.70;;;6.50;99.90;;;;;;5112568;27;20046;-69
2024/01/23 04:36:07;;;;;;;21.67;6.78;;;6.50;99.90;;;;;;5113777;27;20553;-69
2024/01/23 04:38:34;;;;;;;20.15;7.28;;;6.50;99.90;;;;;;5113913;27;20107;-69
2024/01/23 04:41:01;;;;;;;23.20;6.47;;;6.50;99.90;;;;;;5113348;27;20047;-70
2024/01/23 04:43:30;;;;;;;38.47;6.40;;;6.50;99.90;;;;;;5116043;27;20104;-70
2024/01/23 04:45:57;;;;;;;23.98;6.10;;;6.50;99.90;;;;;;5113631;27;20456;-70
2024/01/23 04:48:24;;;;;;;23.40;6.20;;;6.60;99.90;;;;;;5134141;27;20379;-69
2024/01/23 04:50:50;;;;;;;23.95;7.57;;;6.60;99.90;;;;;;5111246;27;20039;-70
2024/01/23 04:53:17;;;;;;;20.40;6.13;;;6.70;99.90;;;;;;5105008;27;20051;-71
2024/01/23 04:55:44;;;;;;;23.67;6.43;;;6.70;99.90;;;;;;5111137;27;20427;-70
2024/01/23 04:58:11;;;;;;;32.88;7.60;;;6.60;99.90;;;;;;5105175;27;20047;-71
2024/01/23 05:00:39;;;;;;;22.73;6.22;;;6.60;99.90;;;;;;5106937;27;20380;-70
2024/01/23 05:03:06;;;;;;;24.48;8.23;;;6.60;99.90;;;;;;5111569;27;20088;-70
2024/01/23 05:05:33;;;;;;;26.77;6.28;;;6.70;99.90;;;;;;5107472;27;20043;-71
2024/01/23 05:08:00;;;;;;;23.08;7.28;;;6.70;99.90;;;;;;5111909;27;20055;-72
2024/01/23 05:10:27;;;;;;;29.52;7.35;;;6.70;99.90;;;;;;5106661;27;20408;-71
2024/01/23 05:12:54;;;;;;;32.40;7.18;;;6.70;99.90;;;;;;5115955;27;20095;-71
2024/01/23 05:15:21;;;;;;;25.20;7.53;;;6.80;99.90;;;;;;5098982;27;20050;-71
2024/01/23 05:17:49;;;;;;;30.73;6.82;;;6.70;99.90;;;;;;5125183;27;20043;-70
2024/01/23 05:20:16;;;;;;;24.15;6.75;;;6.70;99.90;;;;;;5116092;27;20543;-70
2024/01/23 05:22:43;;;;;;;26.25;8.32;;;6.70;99.90;;;;;;5114894;27;20402;-70
2024/01/23 05:25:10;;;;;;;18.27;6.13;;;6.70;99.90;;;;;;5104835;27;20449;-71
2024/01/23 05:27:37;;;;;;;24.23;6.57;;;6.60;99.90;;;;;;5112667;27;20046;-72
2024/01/23 05:30:06;;;;;;;23.35;7.07;;;6.60;99.90;;;;;;5112427;27;20046;-70
2024/01/23 05:32:33;;;;;;;23.02;7.10;;;6.50;99.90;;;;;;5097815;27;20961;-70
2024/01/23 05:35:03;;;;;;;26.23;6.93;;;6.50;99.90;;;;;;5124464;27;20084;-71
2024/01/23 05:37:30;;;;;;;27.23;6.60;;;6.60;99.90;;;;;;5111057;28;20134;-71
2024/01/23 05:39:57;;;;;;;33.83;6.82;;;6.50;99.90;;;;;;5114635;27;20517;-72
2024/01/23 05:42:24;;;;;;;22.55;6.85;;;6.40;99.90;;;;;;5112139;27;20043;-71
2024/01/23 05:44:51;;;;;;;32.65;7.30;;;6.40;99.90;;;;;;5107699;27;20383;-71
2024/01/23 05:47:18;;;;;;;33.00;8.35;;;6.40;99.90;;;;;;5112712;27;20043;-70
2024/01/23 05:49:45;;;;;;;27.48;6.95;;;6.30;99.90;;;;;;5108026;27;20050;-71
2024/01/23 05:52:14;;;;;;;22.23;6.93;;;6.20;99.90;;;;;;5112609;27;20051;-70
2024/01/23 05:54:41;;;;;;;28.75;8.65;;;6.20;99.90;;;;;;5108035;27;20077;-70
2024/01/23 05:57:08;;;;;;;37.35;8.07;;;6.20;99.90;;;;;;5112609;27;20127;-70
2024/01/23 05:59:35;;;;;;;30.52;7.38;;;6.20;99.90;;;;;;5107753;27;20483;-71
2024/01/23 06:02:04;;;;;;;30.27;7.57;;;6.00;99.90;;;;;;5108074;27;20054;-72
2024/01/23 06:04:30;;;;;;;25.27;7.47;;;6.00;99.90;;;;;;5099342;27;20051;-72
2024/01/23 06:06:57;;;;;;;24.05;7.93;;;6.00;99.90;;;;;;5095765;27;20055;-70
2024/01/23 06:09:26;;;;;;;32.40;7.53;;;6.00;99.90;;;;;;5096246;27;20272;-70
2024/01/23 06:11:53;;;;;;;27.75;8.85;;;5.90;99.90;;;;;;5113557;27;20050;-70
2024/01/23 06:14:20;;;;;;;33.50;8.52;;;5.90;99.90;;;;;;5120690;27;20047;-71
2024/01/23 06:16:47;;;;;;;33.50;9.13;;;5.90;99.90;;;;;;5111775;27;20048;-71
2024/01/23 06:19:14;;;;;;;31.20;7.40;;;5.90;99.90;;;;;;5109392;27;20089;-70
2024/01/23 06:21:41;;;;;;;26.33;7.57;;;5.80;99.90;;;;;;5105930;27;20055;-70
2024/01/23 06:24:08;;;;;;;30.73;7.40;;;5.80;99.90;;;;;;5079009;27;20063;-69
2024/01/23 06:26:36;;;;;;;36.50;8.73;;;5.70;99.90;;;;;;5114490;27;20130;-69
2024/01/23 06:29:04;;;;;;;31.95;6.97;;;5.60;99.90;;;;;;5100425;27;20054;-69
2024/01/23 06:31:31;;;;;;;28.23;8.10;;;5.60;99.90;;;;;;5105395;27;20048;-71
2024/01/23 06:33:58;;;;;;;32.28;8.48;;;5.60;99.90;;;;;;5097870;27;20051;-71
2024/01/23 06:36:25;;;;;;;28.48;7.47;;;5.50;99.90;;;;;;5113930;27;20047;-71
2024/01/23 06:38:52;;;;;;;32.65;7.55;;;5.50;99.90;;;;;;5111858;27;20055;-70
2024/01/23 06:41:19;;;;;;;27.88;7.18;;;5.40;99.90;;;;;;5113357;27;20146;-70
2024/01/23 06:43:47;;;;;;;27.20;7.85;;;5.40;99.90;;;;;;5099353;27;20043;-70
2024/01/23 06:46:14;;;;;;;35.15;8.32;;;5.40;99.90;;;;;;5114430;27;20084;-70
2024/01/23 06:48:41;;;;;;;33.13;8.73;;;5.40;99.90;;;;;;5111854;27;20048;-70
2024/01/23 06:51:08;;;;;;;33.83;7.90;;;5.40;99.90;;;;;;5105160;27;20055;-71
2024/01/23 06:53:35;;;;;;;21.63;6.93;;;5.30;99.90;;;;;;5113529;28;20071;-70
2024/01/23 06:56:02;;;;;;;34.25;8.32;;;5.30;99.90;;;;;;5122974;28;20126;-71
2024/01/23 06:58:29;;;;;;;25.30;9.93;;;5.20;99.90;;;;;;5113500;28;20092;-71
2024/01/23 07:00:57;;;;;;;35.10;8.48;;;5.20;99.90;;;;;;5111924;28;20041;-72
2024/01/23 07:03:24;;;;;;;42.95;8.25;;;5.20;99.90;;;;;;5111661;28;20383;-70
2024/01/23 07:05:51;;;;;;;48.58;8.75;;;5.20;99.90;;;;;;5113515;28;20059;-70
2024/01/23 07:08:18;;;;;;;28.15;7.25;;;5.10;99.90;;;;;;5095231;27;20244;-71
2024/01/23 07:10:45;;;;;;;34.90;7.60;;;5.10;99.90;;;;;;5110927;28;20043;-70
2024/01/23 07:13:13;;;;;;;30.45;9.05;;;5.10;99.90;;;;;;5096037;27;20097;-70
2024/01/23 07:15:40;;;;;;;23.63;7.85;;;5.10;99.90;;;;;;5096866;27;20486;-70
2024/01/23 07:18:08;;;;;;;36.63;9.10;;;5.30;99.90;;;;;;5094651;27;20097;-72
2024/01/23 07:20:36;;;;;;;37.83;9.32;;;5.00;99.90;;;;;;5095946;27;20048;-70
2024/01/23 07:23:03;;;;;;;34.28;8.57;;;5.00;99.90;;;;;;5111934;28;20091;-70
2024/01/23 07:25:30;;;;;;;35.75;9.38;;;5.00;99.90;;;;;;5112482;28;20096;-69
2024/01/23 07:27:57;;;;;;;28.92;8.25;;;5.00;99.90;;;;;;5113969;28;20079;-70
2024/01/23 07:30:24;;;;;;;31.83;10.35;;;5.00;99.90;;;;;;5113704;28;20086;-70
2024/01/23 07:32:51;;;;;;;35.08;8.85;;;5.00;99.90;;;;;;5114300;28;20551;-70
2024/01/23 07:35:19;;;;;;;37.22;8.82;;;5.00;99.90;;;;;;5111833;28;20555;-70
2024/01/23 07:37:46;;;;;;;33.00;8.10;;;5.00;99.90;;;;;;5095036;27;20527;-70
2024/01/23 07:40:14;;;;;;;32.00;8.82;;;5.00;99.90;;;;;;5096352;27;20503;-70
2024/01/23 07:42:42;;;;;;;28.75;8.68;;;5.00;99.90;;;;;;5095204;27;20491;-71
2024/01/23 07:45:09;;;;;;;28.85;8.15;;;5.00;99.90;;;;;;5095641;27;20051;-70
2024/01/23 07:47:36;;;;;;;26.70;7.65;;;5.10;99.90;;;;;;5112197;28;20490;-71
2024/01/23 07:50:03;;;;;;;28.02;7.70;;;5.00;99.90;;;;;;5096041;27;20486;-70
2024/01/23 07:52:32;;;;;;;37.60;7.88;;;5.10;99.90;;;;;;5111709;28;20408;-70
2024/01/23 07:54:59;;;;;;;31.10;7.57;;;5.10;99.90;;;;;;5095170;27;20075;-70
2024/01/23 07:57:27;;;;;;;44.30;9.25;;;5.00;99.90;;;;;;5096312;27;20127;-69
2024/01/23 07:59:54;;;;;;;26.80;7.45;;;5.30;99.90;;;;;;5096533;27;20059;-70
2024/01/23 08:02:20;;;;;;;26.95;7.35;;;5.10;99.90;;;;;;5097865;27;20047;-70
2024/01/23 08:04:47;;;;;;;37.38;7.72;;;5.10;99.90;;;;;;5100126;27;20047;-70
2024/01/23 08:07:14;;;;;;;29.55;8.35;;;5.20;99.90;;;;;;5117110;27;20047;-70
2024/01/23 08:09:42;;;;;;;34.83;7.82;;;5.20;99.90;;;;;;5136234;27;20447;-70
2024/01/23 08:12:09;;;;;;;27.75;8.32;;;5.30;99.90;;;;;;5100355;27;20112;-70
2024/01/23 08:14:36;;;;;;;31.17;8.35;;;5.30;99.90;;;;;;5098264;27;20511;-70
2024/01/23 08:17:03;;;;;;;36.38;8.15;;;5.40;99.90;;;;;;5099837;27;20559;-71
2024/01/23 08:19:30;;;;;;;30.85;7.00;;;5.40;99.90;;;;;;5098344;27;20100;-70
2024/01/23 08:21:57;;;;;;;35.03;7.40;;;5.60;99.90;;;;;;5098971;27;20047;-70
2024/01/23 08:24:24;;;;;;;37.47;8.45;;;5.70;99.90;;;;;;5099801;27;20044;-70
2024/01/23 08:26:54;;;;;;;24.98;7.75;;;5.90;99.90;;;;;;5135649;27;20043;-70
2024/01/23 08:29:21;;;;;;;39.95;8.63;;;6.10;99.90;;;;;;5136485;27;20046;-70
2024/01/23 08:31:48;;;;;;;31.77;8.02;;;6.40;99.90;;;;;;5136820;27;20064;-70
2024/01/23 08:34:14;;;;;;;35.47;9.18;;;6.60;99.90;;;;;;5154697;27;20078;-70
2024/01/23 08:36:41;;;;;;;26.70;7.72;;;6.80;99.90;;;;;;5136552;27;20047;-70
2024/01/23 08:39:09;;;;;;;35.78;8.35;;;7.10;99.90;;;;;;5136538;27;20482;-71
2024/01/23 08:41:36;;;;;;;32.10;7.63;;;7.40;99.90;;;;;;5135695;27;20127;-71
2024/01/23 08:44:05;;;;;;;37.33;8.20;;;7.70;99.90;;;;;;5154973;27;20035;-70
2024/01/23 08:46:32;;;;;;;32.28;7.88;;;7.90;99.90;;;;;;5117184;27;20043;-70
2024/01/23 08:48:59;;;;;;;37.55;8.30;;;8.20;99.90;;;;;;5134605;27;20081;-71
2024/01/23 08:51:28;;;;;;;23.48;6.32;;;8.30;99.90;;;;;;5117098;27;20050;-70
2024/01/23 08:53:55;;;;;;;33.00;7.85;;;8.50;99.90;;;;;;5116567;27;20102;-71
2024/01/23 08:56:23;;;;;;;27.73;7.60;;;8.70;99.90;;;;;;5116483;27;20472;-71
2024/01/23 08:58:50;;;;;;;29.60;8.38;;;9.00;99.90;;;;;;5099633;27;20054;-71
2024/01/23 09:01:18;;;;;;;31.23;7.90;;;9.00;99.90;;;;;;5098335;27;20095;-72
2024/01/23 09:03:46;;;;;;;26.83;8.43;;;9.50;99.90;;;;;;5098619;27;20048;-71
2024/01/23 09:06:13;;;;;;;31.55;8.38;;;9.70;99.90;;;;;;5103829;27;20562;-70
2024/01/23 09:08:41;;;;;;;22.30;6.72;;;10.10;99.90;;;;;;5134831;27;20055;-71
2024/01/23 09:11:08;;;;;;;46.05;9.05;;;10.30;99.90;;;;;;5098553;27;20081;-70
2024/01/23 09:13:35;;;;;;;41.30;9.20;;;10.40;99.90;;;;;;5097797;27;20044;-70
2024/01/23 09:16:02;;;;;;;30.58;7.57;;;10.90;99.90;;;;;;5097704;27;20097;-71
2024/01/23 09:18:31;;;;;;;31.45;7.40;;;11.10;99.90;;;;;;5114195;27;20501;-72
2024/01/23 09:21:02;;;;;;;25.60;7.80;;;11.10;99.90;;;;;;5097550;27;20495;-70
2024/01/23 09:23:29;;;;;;;21.48;7.38;;;11.70;99.90;;;;;;5097942;27;20380;-71
2024/01/23 09:25:56;;;;;;;38.17;8.77;;;11.30;99.90;;;;;;5114008;27;20050;-71
2024/01/23 09:28:24;;;;;;;33.85;8.43;;;11.50;99.90;;;;;;5097717;27;20050;-71
2024/01/23 09:30:51;;;;;;;22.85;7.28;;;11.60;99.90;;;;;;5097911;27;20066;-72
2024/01/23 09:33:17;;;;;;;27.63;7.28;;;11.50;99.90;;;;;;5116335;27;20088;-71
2024/01/23 09:35:46;;;;;;;25.02;6.50;;;12.00;99.90;;;;;;5134169;27;21006;-72
2024/01/23 09:38:13;;;;;;;20.48;7.22;;;12.20;99.90;;;;;;5097740;27;20043;-71
2024/01/23 09:40:42;;;;;;;34.58;7.53;;;12.10;99.90;;;;;;5096862;27;20105;-71
2024/01/23 09:43:12;;;;;;;19.73;5.97;;;12.50;99.90;;;;;;5097994;27;20525;-70
2024/01/23 09:45:42;;;;;;;27.42;7.72;;;12.80;99.90;;;;;;5113342;27;20074;-71
2024/01/23 09:48:09;;;;;;;17.85;6.50;;;12.70;99.90;;;;;;5097030;27;20096;-71
2024/01/23 09:50:41;;;;;;;26.70;6.75;;;12.90;99.90;;;;;;5097518;27;20043;-71
2024/01/23 09:53:11;;;;;;;25.70;7.35;;;13.40;99.90;;;;;;5097478;27;20108;-72
2024/01/23 09:55:39;;;;;;;17.30;6.60;;;13.40;99.90;;;;;;5113345;27;20051;-71
2024/01/23 09:58:07;;;;;;;22.27;7.68;;;14.00;99.90;;;;;;5114978;27;20058;-72
2024/01/23 10:00:35;;;;;;;25.27;7.25;;;13.50;99.90;;;;;;5097582;27;20065;-71
2024/01/23 10:03:05;;;;;;;27.52;7.07;;;12.90;99.90;;;;;;5098339;27;20078;-72
2024/01/23 10:05:32;;;;;;;28.20;6.70;;;12.80;99.90;;;;;;5095562;27;20052;-72
2024/01/23 10:07:59;;;;;;;20.65;6.97;;;12.80;99.90;;;;;;5097266;27;20039;-70
2024/01/23 10:10:27;;;;;;;24.90;6.53;;;12.80;99.90;;;;;;5098235;27;20056;-71
2024/01/23 10:12:54;;;;;;;25.10;6.07;;;13.30;99.90;;;;;;5095957;27;20483;-72
2024/01/23 10:15:22;;;;;;;21.85;6.60;;;13.80;99.90;;;;;;5097351;27;20101;-72
2024/01/23 10:17:50;;;;;;;20.42;6.00;;;13.50;99.90;;;;;;5113202;27;20474;-72
2024/01/23 10:20:17;;;;;;;21.92;7.35;;;14.10;99.90;;;;;;5114840;27;20070;-71
2024/01/23 10:22:45;;;;;;;25.38;6.40;;;14.20;99.90;;;;;;5098112;27;20039;-71
2024/01/23 10:25:15;;;;;;;19.63;6.85;;;14.50;99.90;;;;;;5096002;27;20560;-72
2024/01/23 10:27:43;;;;;;;22.25;6.53;;;15.00;99.90;;;;;;5096126;27;20043;-72
2024/01/23 10:30:10;;;;;;;23.35;6.95;;;14.70;99.90;;;;;;5097639;27;20491;-72
2024/01/23 10:32:39;;;;;;;18.15;6.35;;;14.80;99.90;;;;;;5096406;27;20067;-71
2024/01/23 10:35:06;;;;;;;21.92;7.07;;;14.90;99.90;;;;;;5096611;27;20055;-72
2024/01/23 10:37:34;;;;;;;24.13;6.47;;;14.80;99.90;;;;;;5112609;27;20096;-73
2024/01/23 10:40:02;;;;;;;28.33;7.95;;;15.10;99.90;;;;;;5096482;27;20096;-73
2024/01/23 10:42:29;;;;;;;23.88;6.38;;;14.50;99.90;;;;;;5097047;27;20039;-72
2024/01/23 10:45:00;;;;;;;22.02;7.13;;;14.60;99.90;;;;;;5095864;27;20055;-74
2024/01/23 10:47:28;;;;;;;21.13;6.43;;;14.90;99.90;;;;;;5095753;27;20495;-73
2024/01/23 10:49:55;;;;;;;27.05;7.15;;;15.70;99.90;;;;;;5097453;27;20118;-73
2024/01/23 10:52:28;;;;;;;24.02;6.75;;;15.70;99.90;;;;;;5096206;27;20128;-72
2024/01/23 10:54:58;;;;;;;21.27;6.55;;;15.10;99.90;;;;;;5095532;27;20064;-71
2024/01/23 10:57:25;;;;;;;26.65;7.50;;;15.20;99.90;;;;;;5096856;27;20044;-72
2024/01/23 10:59:52;;;;;;;22.73;6.38;;;15.40;99.90;;;;;;5115788;27;20044;-73
2024/01/23 11:02:30;;;;;;;21.90;6.93;;;15.30;99.90;;;;;;5095671;27;20051;-72
2024/01/23 11:04:58;;;;;;;23.20;6.55;;;15.60;99.90;;;;;;5095880;27;20051;-71
2024/01/23 11:07:31;;;;;;;21.75;6.13;;;15.90;99.90;;;;;;5096431;27;20048;-74
2024/01/23 11:10:07;;;;;;;21.88;6.10;;;15.40;99.90;;;;;;5096288;27;20433;-72
2024/01/23 11:12:42;;;;;;;22.25;6.28;;;15.10;99.90;;;;;;5096161;27;20048;-72
2024/01/23 11:15:14;;;;;;;18.83;6.57;;;15.00;99.90;;;;;;5096146;27;20051;-72
2024/01/23 11:17:43;;;;;;;23.52;7.07;;;15.30;99.90;;;;;;5096349;27;20075;-72
2024/01/23 11:20:13;;;;;;;17.63;6.30;;;14.10;99.90;;;;;;5097197;27;20048;-72
2024/01/23 11:22:40;;;;;;;20.10;6.15;;;14.50;99.90;;;;;;5097952;27;20044;-72
2024/01/23 11:25:09;;;;;;;25.98;6.68;;;14.50;99.90;;;;;;5113864;27;20050;-72
2024/01/23 11:27:38;;;;;;;20.00;5.43;;;13.80;99.90;;;;;;5131578;28;20047;-72
2024/01/23 11:30:11;;;;;;;23.25;7.00;;;14.00;99.90;;;;;;5095868;27;20050;-71
2024/01/23 11:32:38;;;;;;;17.50;5.93;;;13.60;99.90;;;;;;5096125;27;20052;-72
2024/01/23 11:35:11;;;;;;;23.40;5.85;;;13.90;99.90;;;;;;5118287;27;20039;-72
2024/01/23 11:37:49;;;;;;;21.25;5.57;;;14.30;99.90;;;;;;5116406;27;20050;-71
2024/01/23 11:40:33;;;;;;;25.83;6.65;;;14.30;99.90;;;;;;5117725;27;20051;-72
2024/01/23 11:43:00;;;;;;;20.20;5.65;;;14.20;99.90;;;;;;5100519;27;20054;-73
2024/01/23 11:45:28;;;;;;;22.90;6.10;;;14.30;99.90;;;;;;5115411;27;20050;-71
2024/01/23 11:47:57;;;;;;;18.35;6.32;;;14.00;99.90;;;;;;5117926;27;20551;-71
2024/01/23 11:50:26;;;;;;;19.70;5.80;;;13.50;99.90;;;;;;5136670;27;20856;-71
2024/01/23 11:52:56;;;;;;;20.10;5.97;;;13.60;99.90;;;;;;5100476;27;20051;-71
2024/01/23 11:55:23;;;;;;;19.75;5.68;;;13.00;99.90;;;;;;5098912;27;20062;-71
2024/01/23 11:57:51;;;;;;;22.55;6.57;;;12.80;99.90;;;;;;5099517;27;20043;-71
2024/01/23 12:00:19;;;;;;;22.13;5.53;;;12.20;99.90;;;;;;5098750;27;20404;-72
2024/01/23 12:02:47;;;;;;;19.70;6.15;;;12.30;99.90;;;;;;5100104;27;20066;-73
2024/01/23 12:05:15;;;;;;;22.60;6.50;;;11.70;99.90;;;;;;5136604;27;20050;-73
2024/01/23 12:07:44;;;;;;;26.85;6.15;;;11.20;99.90;;;;;;5137215;27;20043;-72
2024/01/23 12:10:13;;;;;;;18.30;5.95;;;12.10;99.90;;;;;;5137249;27;20047;-72
2024/01/23 12:12:40;;;;;;;19.13;6.28;;;12.90;99.90;;;;;;5136791;27;20129;-72
2024/01/23 12:15:08;;;;;;;18.48;5.47;;;13.30;99.90;;;;;;5134143;27;20039;-72
2024/01/23 12:17:36;;;;;;;21.70;6.32;;;13.80;99.90;;;;;;5099282;27;20055;-72
2024/01/23 12:20:05;;;;;;;21.23;5.60;;;13.60;99.90;;;;;;5099172;27;20051;-72
2024/01/23 12:22:32;;;;;;;24.75;6.13;;;13.60;99.90;;;;;;5100490;27;20075;-72
2024/01/23 12:25:01;;;;;;;16.98;5.60;;;13.10;99.90;;;;;;5099311;27;20437;-71
2024/01/23 12:27:28;;;;;;;18.70;5.68;;;13.50;99.90;;;;;;5098958;27;20502;-71
2024/01/23 12:29:55;;;;;;;18.00;6.05;;;13.30;99.90;;;;;;5098257;27;20100;-71
2024/01/23 12:32:22;;;;;;;22.95;5.70;;;12.90;99.90;;;;;;5099493;27;20101;-71
2024/01/23 12:34:49;;;;;;;17.77;5.60;;;13.00;99.90;;;;;;5098083;27;20044;-71
2024/01/23 12:37:17;;;;;;;21.10;5.75;;;13.30;99.90;;;;;;5099101;27;20513;-71
2024/01/23 12:39:44;;;;;;;22.70;5.38;;;13.60;99.90;;;;;;5099899;27;20050;-71
2024/01/23 12:42:12;;;;;;;23.83;6.50;;;13.80;99.90;;;;;;5097969;27;20070;-71
2024/01/23 12:44:39;;;;;;;18.30;6.13;;;14.00;99.90;;;;;;5099347;27;20445;-73